ENZV/SVG METAR and TAF weather

Enter ICAO airport designator
Station Type Date Time Source
ENZV METAR 2022/01/26 20:20 UTC NOAA

ENZV 262020Z 17013KT 6000 RA FEW012 BKN017 06/05 Q1006 TEMPO 20015G25KT 2500 RA BR BKN004


Station Type Date Time Source
ENZV Decoded METAR 2022/01/26 20:20 UTC NOAA

Stavanger / Sola, Norway (ENZV) 58-53N 005-38E 9M
Jan 26, 2022 - 03:20 PM EST / 2022.01.26 2020 UTC
Wind: from the S (170 degrees) at 15 MPH (13 KT):0
Visibility: 3 mile(s):0
Sky conditions: mostly cloudy
Weather: rain
Temperature: 42 F (6 C)
Dew Point: 41 F (5 C)
Relative Humidity: 93%
Pressure (altimeter): 29.71 in. Hg (1006 hPa)
ob: ENZV 262020Z 17013KT 6000 RA FEW012 BKN017 06/05 Q1006 TEMPO 20015G25KT 2500 RA BR BKN004
cycle: 20

Station Type Date Time Source
ENZV TAF 2022/01/26 20:27 UTC NOAA

TAF
AMD ENZV 2620/2718 19015KT 7000 RA SCT007 BKN015
TEMPO 2620/2702 22020G30KT 2500 DZRA BKN005
BECMG 2703/2705 32025G35KT
TEMPO 2706/2715 33035G45KT 4000 SHRAGS BKN012CB

Example: see airport list